createdAt,value
2023-04-02T00:00:10.378Z,84.02
2023-04-02T00:03:15.411Z,84.07
2023-04-02T00:06:30.427Z,85.50
2023-04-02T00:09:37.130Z,85.30
2023-04-02T00:12:39.650Z,86.05
2023-04-02T00:15:46.791Z,85.82
2023-04-02T00:18:53.219Z,85.78
2023-04-02T00:21:57.403Z,85.32
2023-04-02T00:25:02.658Z,85.44
2023-04-02T00:28:05.000Z,85.64
2023-04-02T00:31:10.585Z,84.86
2023-04-02T00:34:28.048Z,84.76
2023-04-02T00:37:39.132Z,84.70
2023-04-02T00:40:42.451Z,83.36
2023-04-02T00:43:57.849Z,81.68
2023-04-02T00:47:12.106Z,80.64
2023-04-02T00:50:15.542Z,79.73
2023-04-02T00:53:25.843Z,79.80
2023-04-02T00:56:33.268Z,79.80
2023-04-02T00:59:43.231Z,80.53
2023-04-02T01:03:13.145Z,79.70
2023-04-02T01:06:18.804Z,79.49
2023-04-02T01:09:53.203Z,79.68
2023-04-02T01:13:01.570Z,79.27
2023-04-02T01:16:22.830Z,79.59
2023-04-02T01:20:08.001Z,79.96
2023-04-02T01:23:13.450Z,80.14
2023-04-02T01:26:45.799Z,80.05
2023-04-02T01:30:01.425Z,81.37
2023-04-02T01:33:05.668Z,81.27
2023-04-02T01:36:24.055Z,81.50
2023-04-02T01:39:45.368Z,80.75
2023-04-02T01:43:29.574Z,80.37
2023-04-02T01:46:34.482Z,80.13
2023-04-02T01:49:36.999Z,80.43
2023-04-02T01:52:45.123Z,80.43
2023-04-02T01:55:54.874Z,80.79
2023-04-02T01:58:59.236Z,81.44
2023-04-02T02:02:05.948Z,81.55
2023-04-02T02:05:19.185Z,82.15
2023-04-02T02:08:39.317Z,82.55
2023-04-02T02:11:42.540Z,82.18
2023-04-02T02:14:52.391Z,82.57
2023-04-02T02:18:00.954Z,83.50
2023-04-02T02:21:07.810Z,83.48
2023-04-02T02:24:20.848Z,83.13
2023-04-02T02:27:23.121Z,83.76
2023-04-02T02:30:44.784Z,84.06
2023-04-02T02:33:53.084Z,83.50
2023-04-02T02:37:02.576Z,84.09
2023-04-02T02:40:13.010Z,84.54
2023-04-02T02:43:17.450Z,84.33
2023-04-02T02:46:23.802Z,84.86
2023-04-02T02:49:31.609Z,84.92
2023-04-02T02:52:39.196Z,84.71
2023-04-02T02:55:43.066Z,84.11
2023-04-02T02:58:46.271Z,84.32
2023-04-02T03:01:49.703Z,82.96
2023-04-02T03:04:54.986Z,82.64
2023-04-02T03:07:59.406Z,84.29
2023-04-02T03:11:09.336Z,83.98
2023-04-02T03:14:24.066Z,83.96
2023-04-02T03:17:34.585Z,83.48
2023-04-02T03:20:48.340Z,84.58
2023-04-02T03:24:03.523Z,84.45
2023-04-02T03:27:29.112Z,85.32
2023-04-02T03:30:54.249Z,86.82
2023-04-02T03:34:02.006Z,86.38
2023-04-02T03:37:22.525Z,84.90
2023-04-02T03:40:31.822Z,84.68
2023-04-02T03:43:40.738Z,85.02
2023-04-02T03:46:57.426Z,84.43
2023-04-02T03:50:06.390Z,85.29
2023-04-02T03:53:09.443Z,85.76
2023-04-02T03:56:40.396Z,85.40
2023-04-02T03:59:59.137Z,83.76
2023-04-02T04:03:23.073Z,84.27
2023-04-02T04:06:29.871Z,84.68
2023-04-02T04:09:37.097Z,84.75
2023-04-02T04:12:44.383Z,84.58
2023-04-02T04:15:57.862Z,85.06
2023-04-02T04:19:07.064Z,84.20
2023-04-02T04:22:30.316Z,85.02
2023-04-02T04:25:34.371Z,85.04
2023-04-02T04:29:05.759Z,84.00
2023-04-02T04:32:34.109Z,83.99
2023-04-02T04:35:40.296Z,84.85
2023-04-02T04:38:55.266Z,84.41
2023-04-02T04:42:02.668Z,84.34
2023-04-02T04:45:28.815Z,83.66
2023-04-02T04:48:46.306Z,83.88
2023-04-02T04:51:54.863Z,83.20
2023-04-02T04:54:57.918Z,82.63
2023-04-02T04:58:33.704Z,82.74
2023-04-02T05:01:52.694Z,83.29
2023-04-02T05:04:57.315Z,82.40
2023-04-02T05:08:15.888Z,81.91
2023-04-02T05:11:32.225Z,82.48
2023-04-02T05:14:48.249Z,82.63
2023-04-02T05:17:59.782Z,79.25
2023-04-02T05:21:14.360Z,75.34
2023-04-02T05:24:33.395Z,71.62
2023-04-02T05:27:38.335Z,65.75
2023-04-02T05:30:49.255Z,60.04
2023-04-02T05:33:55.058Z,58.60
2023-04-02T05:36:58.644Z,54.84
2023-04-02T05:40:13.527Z,50.29
2023-04-02T05:43:19.820Z,51.31
2023-04-02T05:46:28.040Z,47.93
2023-04-02T05:49:46.022Z,46.91
2023-04-02T05:52:57.089Z,49.23
2023-04-02T05:56:18.795Z,48.49
2023-04-02T05:59:37.584Z,42.97
2023-04-02T06:02:45.477Z,52.10
2023-04-02T06:05:49.112Z,56.65
2023-04-02T06:09:00.845Z,56.27
2023-04-02T06:12:16.022Z,52.48
2023-04-02T06:15:22.195Z,56.09
2023-04-02T06:18:27.635Z,58.84
2023-04-02T06:21:29.979Z,56.91
2023-04-02T06:24:34.287Z,53.29
2023-04-02T06:27:41.928Z,51.49
2023-04-02T06:30:45.864Z,51.84
2023-04-02T06:33:52.273Z,52.04
2023-04-02T06:36:59.384Z,60.29
2023-04-02T06:40:05.591Z,63.21
2023-04-02T06:43:33.403Z,63.57
2023-04-02T06:46:49.930Z,52.94
2023-04-02T06:50:03.989Z,43.25
2023-04-02T06:53:11.951Z,37.41
2023-04-02T06:56:37.388Z,38.36
2023-04-02T06:59:39.972Z,42.70
2023-04-02T07:02:43.192Z,44.21
2023-04-02T07:05:46.082Z,49.09
2023-04-02T07:08:49.477Z,48.02
2023-04-02T07:11:52.070Z,52.04
2023-04-02T07:14:55.092Z,52.62
2023-04-02T07:17:59.668Z,51.92
2023-04-02T07:21:02.631Z,51.12
2023-04-02T07:24:06.113Z,55.11
2023-04-02T07:27:11.033Z,57.56
2023-04-02T07:30:13.367Z,57.69
2023-04-02T07:33:18.137Z,55.34
2023-04-02T07:36:23.573Z,53.15
2023-04-02T07:39:26.328Z,51.23
2023-04-02T07:42:28.617Z,49.78
2023-04-02T07:45:31.525Z,50.63
2023-04-02T07:48:33.788Z,51.08
2023-04-02T07:51:37.067Z,50.43
2023-04-02T07:54:39.851Z,49.26
2023-04-02T07:57:51.756Z,47.45
2023-04-02T08:00:54.213Z,47.17
2023-04-02T08:03:57.904Z,47.27
2023-04-02T08:07:01.692Z,47.70
2023-04-02T08:10:04.582Z,47.83
2023-04-02T08:13:06.770Z,49.82
2023-04-02T08:16:09.694Z,52.07
2023-04-02T08:19:11.992Z,51.31
2023-04-02T08:22:14.635Z,51.03
2023-04-02T08:25:17.336Z,52.15
2023-04-02T08:28:21.305Z,52.62
2023-04-02T08:31:23.623Z,51.69
2023-04-02T08:34:26.366Z,50.54
2023-04-02T08:37:28.582Z,52.56
2023-04-02T08:40:38.935Z,52.63
2023-04-02T08:43:59.077Z,51.91
2023-04-02T08:47:05.160Z,52.19
2023-04-02T08:50:15.333Z,52.67
2023-04-02T08:53:23.078Z,52.37
2023-04-02T08:56:36.947Z,54.36
2023-04-02T08:59:41.665Z,52.89
2023-04-02T09:02:49.595Z,51.64
2023-04-02T09:05:53.229Z,50.81
2023-04-02T09:08:57.090Z,50.07
2023-04-02T09:12:04.514Z,50.20
2023-04-02T09:15:35.572Z,48.70
2023-04-02T09:18:39.479Z,47.64
2023-04-02T09:21:46.970Z,46.23
2023-04-02T09:24:57.870Z,47.48
2023-04-02T09:28:05.116Z,47.12
2023-04-02T09:31:22.307Z,46.62
2023-04-02T09:34:28.578Z,47.28
2023-04-02T09:37:31.095Z,46.27
2023-04-02T09:40:51.102Z,48.81
2023-04-02T09:44:12.859Z,48.94
2023-04-02T09:47:26.408Z,48.64
2023-04-02T09:50:32.488Z,49.24
2023-04-02T09:53:38.680Z,50.76
2023-04-02T09:57:04.609Z,50.66
2023-04-02T10:00:30.642Z,49.61
2023-04-02T10:03:35.028Z,50.52
2023-04-02T10:06:37.392Z,51.04
2023-04-02T10:09:40.024Z,50.39
2023-04-02T10:12:46.162Z,50.02
2023-04-02T10:16:04.164Z,51.39
2023-04-02T10:19:06.516Z,50.37
2023-04-02T10:22:32.528Z,48.29
2023-04-02T10:25:42.255Z,46.63
2023-04-02T10:28:53.278Z,46.47
2023-04-02T10:32:14.235Z,45.60
2023-04-02T10:35:29.024Z,45.43
2023-04-02T10:39:12.143Z,45.86
2023-04-02T10:42:33.250Z,47.79
2023-04-02T10:45:50.774Z,48.57
2023-04-02T10:48:59.842Z,48.46
2023-04-02T10:52:13.524Z,49.16
2023-04-02T10:55:25.444Z,50.33
2023-04-02T10:58:31.799Z,48.62
2023-04-02T11:01:35.359Z,48.42
2023-04-02T11:04:44.099Z,46.74
2023-04-02T11:08:13.632Z,46.17
2023-04-02T11:11:22.631Z,46.57
2023-04-02T11:14:32.803Z,48.16
2023-04-02T11:17:35.138Z,42.36
2023-04-02T11:20:57.574Z,36.97
2023-04-02T11:24:01.936Z,34.60
2023-04-02T11:27:10.491Z,31.80
2023-04-02T11:30:15.921Z,34.47
2023-04-02T11:33:44.766Z,39.12
2023-04-02T11:36:52.622Z,43.14
2023-04-02T11:39:58.220Z,45.78
2023-04-02T11:43:33.497Z,46.90
2023-04-02T11:46:40.293Z,46.44
2023-04-02T11:49:54.874Z,47.47
2023-04-02T11:53:15.855Z,49.33
2023-04-02T11:56:40.673Z,50.52
2023-04-02T11:59:50.686Z,51.67
2023-04-02T12:03:25.825Z,51.86
2023-04-02T12:06:59.923Z,50.58
2023-04-02T12:10:05.893Z,46.00
2023-04-02T12:13:19.500Z,44.41
2023-04-02T12:16:22.964Z,45.39
2023-04-02T12:19:26.619Z,46.49
2023-04-02T12:22:31.915Z,44.53
2023-04-02T12:25:40.360Z,42.96
2023-04-02T12:28:46.378Z,40.73
2023-04-02T12:31:49.015Z,41.74
2023-04-02T12:34:52.612Z,36.31
2023-04-02T12:37:55.373Z,36.95
2023-04-02T12:41:06.376Z,36.66
2023-04-02T12:44:17.377Z,39.78
2023-04-02T12:47:19.591Z,38.56
2023-04-02T12:50:22.958Z,39.77
2023-04-02T12:53:39.074Z,40.88
2023-04-02T12:56:41.635Z,44.63
2023-04-02T12:59:44.073Z,48.39
2023-04-02T13:02:50.380Z,50.34
2023-04-02T13:05:57.432Z,49.52
2023-04-02T13:09:02.118Z,46.43
2023-04-02T13:12:04.657Z,39.93
2023-04-02T13:15:37.076Z,38.15
2023-04-02T13:18:39.335Z,35.74
2023-04-02T13:21:41.951Z,37.10
2023-04-02T13:24:44.382Z,37.83
2023-04-02T13:27:46.994Z,40.56
2023-04-02T13:30:49.517Z,41.65
2023-04-02T13:33:52.037Z,40.95
2023-04-02T13:36:55.080Z,41.29
2023-04-02T13:39:57.391Z,43.20
2023-04-02T13:42:59.812Z,46.87
2023-04-02T13:46:06.042Z,45.50
2023-04-02T13:49:10.478Z,46.31
2023-04-02T13:52:17.004Z,47.43
2023-04-02T13:55:23.049Z,46.98
2023-04-02T13:58:25.668Z,47.46
2023-04-02T14:01:27.975Z,48.18
2023-04-02T14:04:35.279Z,46.92
2023-04-02T14:07:58.092Z,45.00
2023-04-02T14:11:25.102Z,45.08
2023-04-02T14:15:01.469Z,45.40
2023-04-02T14:18:26.052Z,45.11
2023-04-02T14:21:34.227Z,45.42
2023-04-02T14:24:57.063Z,46.53
2023-04-02T14:28:10.364Z,47.30
2023-04-02T14:31:25.727Z,48.12
2023-04-02T14:34:33.832Z,47.66
2023-04-02T14:37:55.254Z,47.55
2023-04-02T14:41:04.680Z,49.05
2023-04-02T14:44:08.618Z,50.24
2023-04-02T14:47:18.986Z,51.34
2023-04-02T14:50:28.005Z,53.70
2023-04-02T14:53:44.076Z,55.86
2023-04-02T14:56:54.506Z,57.80
2023-04-02T15:00:02.647Z,56.44
2023-04-02T15:03:12.371Z,56.34
2023-04-02T15:06:23.492Z,58.18
2023-04-02T15:09:35.607Z,58.59
2023-04-02T15:12:41.134Z,60.51
2023-04-02T15:15:54.249Z,61.45
2023-04-02T15:18:58.470Z,61.30
2023-04-02T15:22:14.266Z,66.46
2023-04-02T15:25:42.726Z,77.47
2023-04-02T15:29:31.552Z,83.87
2023-04-02T15:32:39.035Z,92.02
2023-04-02T15:35:51.140Z,89.84
2023-04-02T15:39:18.414Z,100.00
2023-04-02T15:42:28.560Z,100.00
2023-04-02T15:45:51.791Z,100.00
2023-04-02T15:49:03.165Z,100.00
2023-04-02T15:52:12.332Z,100.00
2023-04-02T15:55:34.593Z,100.00
2023-04-02T15:59:08.453Z,100.00
2023-04-02T16:02:23.169Z,100.00
2023-04-02T16:05:47.281Z,100.00
2023-04-02T16:08:57.047Z,100.00
2023-04-02T16:12:15.526Z,100.00
2023-04-02T16:15:25.825Z,100.00
2023-04-02T16:18:43.346Z,100.00
2023-04-02T16:21:58.734Z,100.00
2023-04-02T16:25:13.477Z,100.00
2023-04-02T16:28:28.276Z,100.00
2023-04-02T16:31:59.050Z,100.00
2023-04-02T16:35:42.805Z,100.00
2023-04-02T16:38:52.355Z,100.00
2023-04-02T16:42:24.327Z,100.00
2023-04-02T16:45:33.270Z,100.00
2023-04-02T16:48:41.038Z,100.00
2023-04-02T16:52:14.158Z,100.00
2023-04-02T16:55:41.042Z,100.00
2023-04-02T16:59:22.985Z,100.00
2023-04-02T17:02:54.683Z,100.00
2023-04-02T17:06:14.622Z,100.00
2023-04-02T17:09:28.189Z,100.00
2023-04-02T17:12:39.740Z,100.00
2023-04-02T17:15:45.824Z,100.00
2023-04-02T17:18:52.270Z,100.00
2023-04-02T17:21:59.386Z,100.00
2023-04-02T17:25:04.245Z,100.00
2023-04-02T17:28:12.521Z,99.23
2023-04-02T17:31:27.101Z,95.88
2023-04-02T17:34:29.554Z,95.82
2023-04-02T17:37:43.352Z,95.77
2023-04-02T17:40:55.746Z,96.14
2023-04-02T17:44:23.518Z,96.43
2023-04-02T17:47:38.692Z,93.96
2023-04-02T17:50:53.956Z,94.11
2023-04-02T17:54:06.859Z,89.69
2023-04-02T17:57:09.339Z,90.52
2023-04-02T18:00:35.263Z,96.04
2023-04-02T18:03:40.998Z,96.29
2023-04-02T18:06:46.044Z,89.17
2023-04-02T18:10:21.830Z,87.96
2023-04-02T18:13:55.287Z,84.67
2023-04-02T18:17:34.410Z,90.15
2023-04-02T18:21:06.906Z,92.13
2023-04-02T18:24:18.344Z,87.69
2023-04-02T18:27:35.048Z,89.37
2023-04-02T18:30:57.118Z,85.85
2023-04-02T18:34:04.533Z,82.81
2023-04-02T18:37:29.711Z,84.68
2023-04-02T18:40:50.000Z,81.56
2023-04-02T18:44:29.610Z,82.04
2023-04-02T18:47:47.196Z,81.13
2023-04-02T18:50:50.071Z,81.12
2023-04-02T18:54:25.281Z,79.32
2023-04-02T18:57:34.239Z,79.21
2023-04-02T19:00:41.666Z,80.00
2023-04-02T19:03:50.208Z,79.10
2023-04-02T19:07:02.714Z,79.60
2023-04-02T19:10:20.552Z,78.43
2023-04-02T19:13:22.779Z,79.96
2023-04-02T19:16:43.903Z,80.48
2023-04-02T19:20:06.475Z,79.37
2023-04-02T19:23:43.818Z,78.90
2023-04-02T19:27:07.569Z,79.54
2023-04-02T19:30:28.935Z,77.87
2023-04-02T19:33:39.745Z,78.65
2023-04-02T19:36:46.642Z,78.47
2023-04-02T19:40:16.786Z,78.10
2023-04-02T19:43:19.508Z,77.03
2023-04-02T19:46:23.602Z,77.36
2023-04-02T19:49:33.599Z,77.84
2023-04-02T19:52:36.357Z,77.69
2023-04-02T19:55:40.352Z,77.70
2023-04-02T19:58:42.578Z,77.11
2023-04-02T20:01:45.691Z,76.66
2023-04-02T20:04:48.169Z,76.82
2023-04-02T20:07:50.406Z,77.26
2023-04-02T20:10:52.969Z,77.09
2023-04-02T20:13:55.335Z,76.77
2023-04-02T20:16:57.963Z,77.25
2023-04-02T20:20:00.372Z,77.76
2023-04-02T20:23:02.951Z,77.35
2023-04-02T20:26:05.579Z,76.18
2023-04-02T20:29:08.136Z,78.49
2023-04-02T20:32:10.814Z,77.20
2023-04-02T20:35:13.316Z,78.31
2023-04-02T20:38:15.668Z,77.05
2023-04-02T20:41:19.122Z,77.25
2023-04-02T20:44:21.813Z,76.51
2023-04-02T20:47:24.474Z,76.60
2023-04-02T20:50:26.861Z,77.84
2023-04-02T20:53:31.027Z,78.44
2023-04-02T20:56:33.365Z,76.67
2023-04-02T20:59:35.885Z,76.75
2023-04-02T21:02:38.167Z,76.66
2023-04-02T21:05:45.948Z,76.99
2023-04-02T21:08:49.312Z,77.01
2023-04-02T21:11:51.672Z,77.51
2023-04-02T21:14:58.130Z,78.29
2023-04-02T21:18:01.871Z,77.34
2023-04-02T21:21:05.820Z,77.29
2023-04-02T21:24:09.480Z,77.65
2023-04-02T21:27:12.443Z,78.21
2023-04-02T21:30:14.927Z,78.03
2023-04-02T21:33:17.139Z,78.45
2023-04-02T21:36:22.851Z,78.68
2023-04-02T21:39:25.300Z,78.63
2023-04-02T21:42:27.840Z,78.42
2023-04-02T21:45:30.153Z,78.28
2023-04-02T21:48:32.727Z,78.88
2023-04-02T21:51:36.604Z,80.95
2023-04-02T21:54:39.110Z,77.58
2023-04-02T21:57:41.369Z,78.40
2023-04-02T22:00:43.866Z,79.56
2023-04-02T22:03:46.586Z,77.17
2023-04-02T22:06:52.507Z,77.86
2023-04-02T22:09:54.989Z,78.13
2023-04-02T22:12:58.212Z,77.24
2023-04-02T22:16:03.616Z,76.51
2023-04-02T22:19:10.565Z,76.05
2023-04-02T22:22:13.012Z,76.50
2023-04-02T22:25:15.695Z,75.20
2023-04-02T22:28:18.234Z,75.20
2023-04-02T22:31:23.238Z,74.99
2023-04-02T22:34:25.816Z,75.38
2023-04-02T22:37:28.974Z,73.95
2023-04-02T22:40:31.517Z,75.54
2023-04-02T22:43:34.604Z,73.98
2023-04-02T22:46:37.268Z,73.45
2023-04-02T22:49:39.622Z,74.39
2023-04-02T22:52:42.703Z,73.40
2023-04-02T22:55:45.161Z,73.12
2023-04-02T22:58:48.386Z,72.51
2023-04-02T23:01:50.608Z,73.37
2023-04-02T23:04:53.195Z,73.00
2023-04-02T23:07:55.472Z,73.40
2023-04-02T23:11:16.400Z,73.85
2023-04-02T23:14:18.655Z,72.58
2023-04-02T23:17:21.197Z,72.84
2023-04-02T23:20:23.396Z,73.14
2023-04-02T23:23:26.120Z,74.45
2023-04-02T23:26:31.150Z,72.71
2023-04-02T23:29:33.710Z,74.20
2023-04-02T23:32:36.137Z,72.33
2023-04-02T23:35:38.816Z,72.15
2023-04-02T23:38:41.250Z,72.02
2023-04-02T23:41:43.742Z,71.91
2023-04-02T23:44:46.057Z,73.67
2023-04-02T23:47:48.566Z,72.40
2023-04-02T23:50:50.787Z,73.03
2023-04-02T23:53:55.416Z,71.99
2023-04-02T23:56:57.615Z,72.87
